createdAt,value
2024-04-30T00:00:01.643Z,11.55
2024-04-30T00:01:14.324Z,11.55
2024-04-30T00:02:18.670Z,11.40
2024-04-30T00:04:27.986Z,11.34
2024-04-30T00:05:48.120Z,11.27
2024-04-30T00:06:56.940Z,11.22
2024-04-30T00:08:04.089Z,11.24
2024-04-30T00:09:07.108Z,11.18
2024-04-30T00:10:15.170Z,11.22
2024-04-30T00:11:20.562Z,11.18
2024-04-30T00:12:24.699Z,11.21
2024-04-30T00:13:29.106Z,11.24
2024-04-30T00:14:42.229Z,11.23
2024-04-30T00:15:45.313Z,11.21
2024-04-30T00:16:47.625Z,11.22
2024-04-30T00:17:51.656Z,11.26
2024-04-30T00:18:59.391Z,11.29
2024-04-30T00:20:05.130Z,11.30
2024-04-30T00:21:12.422Z,11.22
2024-04-30T00:22:16.995Z,11.22
2024-04-30T00:23:21.080Z,11.23
2024-04-30T00:24:25.981Z,11.17
2024-04-30T00:25:31.282Z,11.07
2024-04-30T00:26:37.834Z,11.10
2024-04-30T00:27:42.684Z,11.14
2024-04-30T00:28:50.949Z,11.14
2024-04-30T00:29:53.740Z,11.18
2024-04-30T00:30:57.637Z,11.13
2024-04-30T00:32:00.750Z,11.17
2024-04-30T00:33:04.458Z,11.21
2024-04-30T00:34:11.144Z,11.19
2024-04-30T00:35:13.922Z,11.19
2024-04-30T00:36:16.834Z,11.16
2024-04-30T00:37:19.924Z,11.15
2024-04-30T00:38:24.770Z,11.04
2024-04-30T00:39:28.112Z,11.04
2024-04-30T00:40:31.704Z,11.05
2024-04-30T00:43:04.317Z,10.97
2024-04-30T00:44:16.259Z,11.01
2024-04-30T00:45:22.489Z,11.00
2024-04-30T00:46:29.484Z,10.94
2024-04-30T00:48:09.518Z,10.91
2024-04-30T00:49:17.332Z,10.88
2024-04-30T00:50:20.662Z,10.78
2024-04-30T00:51:24.619Z,10.90
2024-04-30T00:52:28.461Z,10.86
2024-04-30T00:53:36.745Z,10.80
2024-04-30T00:54:40.490Z,10.69
2024-04-30T00:55:44.313Z,10.69
2024-04-30T00:56:47.208Z,10.58
2024-04-30T00:57:52.029Z,10.68
2024-04-30T00:58:57.540Z,10.67
2024-04-30T01:00:01.402Z,10.71
2024-04-30T01:01:05.336Z,10.75
2024-04-30T01:02:09.223Z,10.72
2024-04-30T01:03:11.717Z,10.65
2024-04-30T01:04:14.715Z,10.71
2024-04-30T01:05:20.255Z,10.71
2024-04-30T01:06:22.550Z,10.71
2024-04-30T01:07:26.669Z,10.72
2024-04-30T01:08:33.993Z,10.75
2024-04-30T01:09:37.512Z,10.63
2024-04-30T01:10:44.490Z,10.64
2024-04-30T01:11:48.961Z,10.69
2024-04-30T01:12:53.698Z,10.64
2024-04-30T01:13:57.110Z,10.61
2024-04-30T01:15:02.244Z,10.56
2024-04-30T01:16:06.838Z,10.57
2024-04-30T01:17:10.434Z,10.52
2024-04-30T01:18:15.087Z,10.62
2024-04-30T01:19:18.525Z,10.54
2024-04-30T01:20:23.895Z,10.52
2024-04-30T01:21:28.139Z,10.58
2024-04-30T01:22:51.373Z,10.51
2024-04-30T01:23:55.811Z,10.52
2024-04-30T01:24:59.114Z,10.52
2024-04-30T01:26:01.732Z,10.54
2024-04-30T01:27:16.188Z,10.39
2024-04-30T01:28:20.457Z,10.45
2024-04-30T01:29:24.299Z,10.47
2024-04-30T01:30:32.756Z,10.39
2024-04-30T01:31:36.415Z,10.46
2024-04-30T01:32:39.557Z,10.48
2024-04-30T01:33:45.146Z,10.41
2024-04-30T01:35:00.682Z,10.43
2024-04-30T01:36:06.428Z,10.33
2024-04-30T01:37:17.241Z,10.40
2024-04-30T01:38:22.893Z,10.36
2024-04-30T01:39:26.561Z,10.35
2024-04-30T01:40:30.362Z,10.35
2024-04-30T01:41:34.364Z,10.38
2024-04-30T01:42:39.278Z,10.42
2024-04-30T01:43:43.932Z,10.36
2024-04-30T01:44:51.950Z,10.30
2024-04-30T01:46:00.305Z,10.38
2024-04-30T01:47:07.547Z,10.42
2024-04-30T01:48:11.031Z,10.36
2024-04-30T01:49:22.321Z,10.41
2024-04-30T01:50:27.005Z,10.40
2024-04-30T01:51:32.756Z,10.43
2024-04-30T01:52:40.668Z,10.40
2024-04-30T01:53:54.186Z,10.33
2024-04-30T01:55:21.533Z,10.28
2024-04-30T01:56:26.997Z,10.23
2024-04-30T01:57:48.714Z,10.22
2024-04-30T01:58:54.954Z,10.14
2024-04-30T02:00:01.058Z,10.14
2024-04-30T02:01:20.600Z,10.21
2024-04-30T02:02:26.948Z,10.20
2024-04-30T02:03:34.644Z,10.19
2024-04-30T02:04:46.423Z,10.23
2024-04-30T02:05:52.629Z,10.24
2024-04-30T02:06:58.998Z,10.35
2024-04-30T02:08:05.092Z,10.33
2024-04-30T02:09:11.201Z,10.44
2024-04-30T02:10:18.062Z,10.48
2024-04-30T02:11:46.716Z,10.51
2024-04-30T02:12:51.179Z,10.42
2024-04-30T02:13:57.641Z,10.47
2024-04-30T02:15:05.589Z,10.52
2024-04-30T02:16:11.569Z,10.50
2024-04-30T02:17:14.023Z,10.54
2024-04-30T02:18:17.169Z,10.60
2024-04-30T02:19:40.149Z,10.53
2024-04-30T02:20:45.257Z,10.57
2024-04-30T02:21:47.723Z,10.72
2024-04-30T02:22:50.239Z,11.09
2024-04-30T02:23:52.617Z,11.34
2024-04-30T02:24:54.982Z,11.78
2024-04-30T02:26:02.730Z,12.10
2024-04-30T02:27:07.124Z,12.49
2024-04-30T02:28:09.981Z,12.84
2024-04-30T02:29:13.097Z,12.89
2024-04-30T02:30:36.121Z,13.00
2024-04-30T02:32:00.114Z,13.61
2024-04-30T02:33:21.348Z,13.92
2024-04-30T02:34:30.246Z,13.83
2024-04-30T02:35:34.449Z,14.00
2024-04-30T02:36:37.372Z,14.50
2024-04-30T02:37:40.439Z,14.41
2024-04-30T02:38:46.551Z,14.72
2024-04-30T02:39:51.323Z,14.94
2024-04-30T02:40:54.861Z,15.58
2024-04-30T02:42:06.461Z,15.81
2024-04-30T02:43:10.081Z,16.12
2024-04-30T02:44:29.776Z,16.20
2024-04-30T02:45:33.169Z,16.85
2024-04-30T02:46:43.781Z,17.05
2024-04-30T02:47:55.332Z,17.40
2024-04-30T02:49:03.743Z,17.84
2024-04-30T02:50:09.892Z,17.76
2024-04-30T02:51:12.698Z,18.25
2024-04-30T02:52:15.847Z,18.17
2024-04-30T02:53:43.684Z,18.61
2024-04-30T02:54:48.072Z,19.03
2024-04-30T02:55:51.480Z,19.20
2024-04-30T02:56:54.095Z,19.48
2024-04-30T02:58:03.408Z,20.00
2024-04-30T02:59:09.178Z,20.12
2024-04-30T03:00:12.163Z,20.07
2024-04-30T03:01:15.286Z,20.53
2024-04-30T03:02:21.046Z,19.99
2024-04-30T03:03:24.624Z,19.25
2024-04-30T03:04:27.952Z,18.62
2024-04-30T03:05:31.202Z,18.24
2024-04-30T03:06:39.052Z,17.98
2024-04-30T03:07:42.685Z,17.51
2024-04-30T03:08:46.141Z,17.30
2024-04-30T03:09:49.084Z,17.05
2024-04-30T03:11:02.001Z,17.00
2024-04-30T03:12:10.046Z,16.70
2024-04-30T03:13:17.126Z,16.61
2024-04-30T03:14:25.968Z,16.39
2024-04-30T03:15:35.011Z,16.30
2024-04-30T03:18:15.483Z,15.90
2024-04-30T03:19:22.283Z,15.82
2024-04-30T03:20:27.727Z,15.70
2024-04-30T03:21:37.211Z,15.67
2024-04-30T03:22:43.980Z,15.64
2024-04-30T03:23:48.269Z,15.58
2024-04-30T03:24:52.307Z,15.49
2024-04-30T03:25:56.381Z,15.48
2024-04-30T03:27:04.433Z,15.46
2024-04-30T03:28:14.203Z,15.57
2024-04-30T03:29:17.271Z,15.37
2024-04-30T03:30:31.678Z,15.47
2024-04-30T03:31:44.760Z,15.47
2024-04-30T03:32:53.512Z,15.50
2024-04-30T03:33:59.600Z,15.60
2024-04-30T03:35:03.231Z,15.53
2024-04-30T03:36:06.977Z,15.62
2024-04-30T03:37:12.015Z,15.68
2024-04-30T03:38:16.002Z,15.73
2024-04-30T03:39:18.875Z,15.70
2024-04-30T03:40:24.333Z,15.66
2024-04-30T03:41:30.939Z,15.72
2024-04-30T03:42:33.218Z,15.76
2024-04-30T03:43:39.511Z,15.78
2024-04-30T03:44:45.826Z,15.69
2024-04-30T03:45:50.834Z,15.78
2024-04-30T03:46:55.202Z,15.84
2024-04-30T03:48:11.414Z,15.87
2024-04-30T03:49:15.147Z,15.98
2024-04-30T03:50:18.914Z,15.96
2024-04-30T03:51:21.954Z,16.07
2024-04-30T03:52:24.855Z,16.14
2024-04-30T03:53:29.182Z,16.68
2024-04-30T03:54:35.335Z,17.98
2024-04-30T03:55:38.064Z,19.22
2024-04-30T03:56:43.399Z,20.02
2024-04-30T03:57:50.361Z,20.87
2024-04-30T03:58:52.666Z,21.64
2024-04-30T03:59:56.282Z,22.32
2024-04-30T04:01:00.611Z,23.05
2024-04-30T04:02:03.323Z,23.93
2024-04-30T04:03:07.392Z,23.92
2024-04-30T04:04:10.139Z,24.07
2024-04-30T04:05:12.556Z,24.63
2024-04-30T04:06:17.614Z,25.71
2024-04-30T04:07:20.425Z,25.98
2024-04-30T04:08:22.713Z,25.88
2024-04-30T04:09:25.309Z,26.42
2024-04-30T04:10:27.582Z,26.85
2024-04-30T04:11:48.665Z,27.05
2024-04-30T04:13:09.589Z,27.18
2024-04-30T04:14:30.720Z,26.81
2024-04-30T04:15:34.026Z,27.45
2024-04-30T04:16:36.188Z,27.73
2024-04-30T04:17:38.660Z,27.88
2024-04-30T04:18:40.905Z,28.22
2024-04-30T04:19:43.841Z,28.34
2024-04-30T04:20:46.036Z,27.98
2024-04-30T04:21:48.215Z,28.27
2024-04-30T04:22:50.464Z,28.95
2024-04-30T04:23:52.649Z,29.29
2024-04-30T04:24:54.835Z,29.77
2024-04-30T04:25:57.126Z,29.77
2024-04-30T04:26:59.559Z,29.52
2024-04-30T04:28:02.726Z,29.88
2024-04-30T04:29:04.890Z,29.82
2024-04-30T04:30:07.702Z,29.86
2024-04-30T04:31:09.898Z,30.38
2024-04-30T04:32:12.371Z,30.46
2024-04-30T04:33:14.620Z,30.70
2024-04-30T04:34:16.936Z,30.70
2024-04-30T04:35:19.138Z,30.86
2024-04-30T04:36:21.335Z,31.62
2024-04-30T04:37:25.756Z,31.81
2024-04-30T04:38:29.370Z,31.56
2024-04-30T04:39:31.525Z,31.97
2024-04-30T04:40:33.742Z,32.71
2024-04-30T04:41:35.965Z,32.65
2024-04-30T04:42:38.280Z,32.07
2024-04-30T04:43:40.933Z,32.61
2024-04-30T04:44:43.214Z,32.41
2024-04-30T04:45:45.401Z,33.10
2024-04-30T04:46:47.612Z,32.31
2024-04-30T04:47:49.914Z,33.13
2024-04-30T04:48:54.152Z,33.03
2024-04-30T04:49:57.197Z,32.60
2024-04-30T04:50:59.480Z,32.74
2024-04-30T04:52:01.869Z,32.35
2024-04-30T04:53:04.508Z,32.70
2024-04-30T04:54:06.702Z,33.33
2024-04-30T04:55:09.044Z,32.87
2024-04-30T04:56:11.337Z,34.00
2024-04-30T04:57:13.551Z,33.49
2024-04-30T04:58:15.763Z,33.92
2024-04-30T04:59:18.179Z,33.44
2024-04-30T05:00:23.953Z,33.87
2024-04-30T05:01:27.882Z,32.87
2024-04-30T05:02:30.319Z,32.09
2024-04-30T05:03:32.729Z,33.32
2024-04-30T05:04:34.968Z,33.39
2024-04-30T05:05:37.270Z,32.69
2024-04-30T05:06:42.455Z,33.16
2024-04-30T05:07:45.120Z,33.63
2024-04-30T05:08:47.401Z,33.14
2024-04-30T05:09:49.735Z,32.90
2024-04-30T05:10:52.136Z,32.41
2024-04-30T05:11:55.820Z,33.09
2024-04-30T05:12:58.128Z,33.20
2024-04-30T05:14:00.432Z,33.43
2024-04-30T05:15:02.645Z,32.97
2024-04-30T05:16:06.069Z,33.55
2024-04-30T05:17:08.506Z,33.71
2024-04-30T05:18:10.778Z,33.52
2024-04-30T05:19:13.124Z,32.69
2024-04-30T05:20:15.488Z,33.51
2024-04-30T05:21:17.667Z,33.18
2024-04-30T05:22:19.891Z,32.85
2024-04-30T05:23:22.134Z,32.78
2024-04-30T05:24:24.575Z,31.78
2024-04-30T05:25:28.037Z,31.97
2024-04-30T05:26:30.619Z,32.10
2024-04-30T05:27:32.813Z,31.68
2024-04-30T05:28:35.140Z,32.44
2024-04-30T05:29:37.851Z,31.30
2024-04-30T05:30:40.159Z,30.99
2024-04-30T05:31:42.331Z,31.52
2024-04-30T05:32:45.779Z,30.93
2024-04-30T05:33:48.353Z,30.37
2024-04-30T05:34:50.695Z,30.45
2024-04-30T05:35:53.038Z,30.35
2024-04-30T05:36:55.407Z,30.25
2024-04-30T05:37:57.588Z,29.81
2024-04-30T05:39:02.823Z,29.53
2024-04-30T05:40:06.313Z,29.29
2024-04-30T05:41:08.706Z,30.36
2024-04-30T05:42:11.009Z,30.96
2024-04-30T05:43:15.907Z,30.40
2024-04-30T05:44:18.546Z,31.79
2024-04-30T05:45:20.893Z,32.16
2024-04-30T05:46:23.073Z,31.54
2024-04-30T05:47:25.432Z,31.16
2024-04-30T05:48:27.748Z,31.41
2024-04-30T05:49:29.996Z,31.00
2024-04-30T05:50:32.183Z,31.31
2024-04-30T05:51:34.610Z,31.30
2024-04-30T05:52:37.014Z,31.29
2024-04-30T05:53:39.395Z,29.66
2024-04-30T05:54:41.654Z,30.53
2024-04-30T05:55:44.063Z,30.50
2024-04-30T05:56:46.453Z,30.67
2024-04-30T05:57:48.745Z,31.42
2024-04-30T05:58:50.878Z,31.95
2024-04-30T05:59:53.145Z,31.98
2024-04-30T06:00:55.450Z,31.86
2024-04-30T06:02:01.492Z,31.19
2024-04-30T06:03:04.387Z,32.32
2024-04-30T06:04:06.781Z,33.51
2024-04-30T06:05:09.206Z,33.30
2024-04-30T06:06:12.170Z,32.63
2024-04-30T06:07:14.423Z,31.36
2024-04-30T06:08:16.755Z,32.14
2024-04-30T06:09:19.183Z,32.51
2024-04-30T06:10:21.339Z,33.15
2024-04-30T06:11:23.604Z,32.02
2024-04-30T06:12:26.135Z,32.74
2024-04-30T06:13:28.524Z,32.59
2024-04-30T06:14:31.035Z,32.98
2024-04-30T06:15:34.745Z,32.63
2024-04-30T06:16:38.281Z,32.73
2024-04-30T06:17:40.642Z,32.97
2024-04-30T06:18:43.112Z,33.21
2024-04-30T06:19:45.376Z,31.13
2024-04-30T06:20:47.567Z,31.82
2024-04-30T06:21:49.987Z,32.75
2024-04-30T06:22:52.586Z,30.99
2024-04-30T06:23:56.058Z,31.04
2024-04-30T06:24:59.511Z,31.90
2024-04-30T06:26:01.858Z,31.70
2024-04-30T06:27:04.366Z,31.51
2024-04-30T06:28:07.214Z,31.23
2024-04-30T06:29:09.510Z,31.77
2024-04-30T06:30:11.892Z,31.07
2024-04-30T06:31:14.302Z,31.38
2024-04-30T06:32:16.541Z,31.26
2024-04-30T06:33:18.889Z,32.20
2024-04-30T06:34:24.016Z,32.45
2024-04-30T06:35:27.295Z,31.88
2024-04-30T06:36:30.076Z,31.44
2024-04-30T06:37:32.267Z,31.62
2024-04-30T06:38:35.693Z,31.97
2024-04-30T06:39:38.605Z,31.89
2024-04-30T06:40:42.498Z,32.29
2024-04-30T06:41:44.702Z,32.65
2024-04-30T06:42:46.926Z,32.43
2024-04-30T06:43:49.887Z,33.37
2024-04-30T06:44:52.178Z,33.27
2024-04-30T06:45:55.471Z,34.47
2024-04-30T06:46:57.675Z,34.91
2024-04-30T06:47:59.934Z,34.50
2024-04-30T06:49:03.807Z,32.80
2024-04-30T06:50:06.721Z,33.76
2024-04-30T06:51:09.107Z,33.85
2024-04-30T06:52:12.086Z,34.71
2024-04-30T06:53:14.355Z,35.15
2024-04-30T06:54:16.740Z,35.46
2024-04-30T06:55:19.416Z,34.43
2024-04-30T06:56:21.669Z,34.71
2024-04-30T06:57:24.069Z,33.87
2024-04-30T06:58:26.537Z,34.56
2024-04-30T06:59:29.021Z,35.53
2024-04-30T07:00:31.224Z,34.60
2024-04-30T07:01:34.256Z,34.20
2024-04-30T07:02:36.502Z,33.47
2024-04-30T07:03:38.707Z,33.71
2024-04-30T07:04:41.816Z,33.15
2024-04-30T07:05:44.710Z,32.91
2024-04-30T07:06:47.051Z,34.45
2024-04-30T07:07:49.481Z,33.63
2024-04-30T07:08:52.817Z,33.37
2024-04-30T07:09:57.801Z,33.03
2024-04-30T07:11:02.346Z,32.43
2024-04-30T07:12:06.891Z,32.59
2024-04-30T07:13:09.710Z,32.53
2024-04-30T07:14:12.109Z,32.62
2024-04-30T07:15:14.611Z,33.43
2024-04-30T07:16:18.313Z,33.00
2024-04-30T07:17:20.951Z,32.36
2024-04-30T07:18:24.279Z,33.70
2024-04-30T07:19:26.760Z,33.56
2024-04-30T07:20:30.040Z,32.66
2024-04-30T07:21:32.270Z,33.27
2024-04-30T07:22:35.889Z,33.71
2024-04-30T07:23:40.582Z,32.72
2024-04-30T07:24:43.306Z,32.81
2024-04-30T07:25:47.676Z,33.20
2024-04-30T07:26:50.169Z,34.01
2024-04-30T07:27:53.804Z,34.33
2024-04-30T07:28:57.554Z,34.56
2024-04-30T07:30:01.344Z,34.50
2024-04-30T07:31:03.888Z,33.92
2024-04-30T07:32:06.485Z,32.72
2024-04-30T07:33:08.925Z,32.89
2024-04-30T07:34:11.436Z,33.15
2024-04-30T07:35:13.920Z,33.05
2024-04-30T07:36:17.855Z,33.76
2024-04-30T07:37:20.096Z,33.89
2024-04-30T07:38:22.464Z,32.73
2024-04-30T07:39:25.415Z,30.98
2024-04-30T07:40:29.313Z,32.32
2024-04-30T07:41:31.722Z,32.84
2024-04-30T07:42:35.940Z,32.16
2024-04-30T07:43:43.607Z,32.51
2024-04-30T07:44:47.052Z,32.98
2024-04-30T07:45:49.797Z,33.10
2024-04-30T07:46:53.445Z,33.44
2024-04-30T07:47:55.835Z,33.47
2024-04-30T07:48:58.112Z,32.23
2024-04-30T07:50:02.595Z,32.14
2024-04-30T07:51:08.623Z,32.11
2024-04-30T07:52:10.886Z,32.62
2024-04-30T07:53:13.414Z,32.48
2024-04-30T07:54:16.646Z,30.42
2024-04-30T07:55:21.362Z,30.84
2024-04-30T07:56:23.765Z,31.50
2024-04-30T07:57:27.364Z,31.26
2024-04-30T07:58:29.568Z,31.13
2024-04-30T07:59:33.366Z,31.06
2024-04-30T08:00:35.729Z,31.22
2024-04-30T08:01:37.980Z,31.76
2024-04-30T08:02:42.111Z,31.77
2024-04-30T08:03:44.356Z,31.22
2024-04-30T08:04:46.673Z,30.53
2024-04-30T08:05:50.571Z,30.33
2024-04-30T08:06:55.597Z,30.32
2024-04-30T08:07:59.830Z,31.28
2024-04-30T08:09:02.500Z,30.99
2024-04-30T08:10:05.140Z,31.15
2024-04-30T08:11:09.944Z,31.87
2024-04-30T08:12:12.222Z,31.73
2024-04-30T08:13:14.611Z,31.34
2024-04-30T08:14:16.852Z,31.66
2024-04-30T08:15:19.032Z,31.70
2024-04-30T08:16:22.543Z,31.49
2024-04-30T08:17:25.037Z,31.80
2024-04-30T08:18:27.503Z,31.11
2024-04-30T08:19:30.459Z,31.51
2024-04-30T08:20:35.520Z,31.62
2024-04-30T08:21:37.938Z,31.66
2024-04-30T08:22:40.346Z,31.20
2024-04-30T08:23:44.028Z,31.19
2024-04-30T08:24:46.244Z,31.52
2024-04-30T08:25:49.645Z,31.00
2024-04-30T08:26:51.891Z,29.66
2024-04-30T08:27:54.153Z,30.27
2024-04-30T08:28:56.383Z,30.08
2024-04-30T08:29:59.265Z,30.21
2024-04-30T08:31:02.033Z,29.24
2024-04-30T08:32:07.775Z,30.35
2024-04-30T08:33:10.086Z,29.83
2024-04-30T08:34:14.182Z,29.67
2024-04-30T08:35:17.330Z,30.45
2024-04-30T08:36:25.776Z,30.07
2024-04-30T08:37:36.892Z,30.11
2024-04-30T08:38:39.886Z,30.33
2024-04-30T08:39:43.615Z,29.52
2024-04-30T08:40:47.433Z,30.05
2024-04-30T08:41:51.717Z,30.12
2024-04-30T08:42:55.768Z,30.00
2024-04-30T08:44:02.290Z,30.11
2024-04-30T08:45:05.486Z,29.46
2024-04-30T08:46:08.263Z,29.35
2024-04-30T08:47:12.174Z,28.80
2024-04-30T08:48:16.102Z,29.35
2024-04-30T08:49:29.512Z,29.38
2024-04-30T08:50:42.785Z,29.24
2024-04-30T08:51:45.948Z,29.41
2024-04-30T08:52:49.121Z,29.48
2024-04-30T08:53:52.659Z,28.89
2024-04-30T08:54:59.659Z,28.44
2024-04-30T08:56:02.055Z,28.86
2024-04-30T08:57:06.010Z,28.81
2024-04-30T08:58:09.769Z,29.06
2024-04-30T08:59:12.103Z,29.06
2024-04-30T09:00:14.588Z,28.99
2024-04-30T09:01:18.167Z,28.80
2024-04-30T09:02:22.967Z,28.58
2024-04-30T09:03:26.826Z,28.51
2024-04-30T09:04:30.285Z,28.64
2024-04-30T09:05:36.039Z,28.36
2024-04-30T09:06:43.022Z,28.44
2024-04-30T09:07:48.399Z,28.40
2024-04-30T09:08:50.687Z,28.02
2024-04-30T09:09:59.990Z,27.61
2024-04-30T09:11:03.101Z,27.63
2024-04-30T09:12:07.642Z,28.02
2024-04-30T09:13:10.064Z,28.07
2024-04-30T09:14:12.616Z,27.58
2024-04-30T09:15:21.191Z,27.19
2024-04-30T09:16:25.134Z,26.56
2024-04-30T09:17:28.977Z,26.27
2024-04-30T09:18:33.711Z,26.28
2024-04-30T09:19:36.047Z,26.61
2024-04-30T09:20:47.669Z,26.63
2024-04-30T09:21:51.297Z,26.23
2024-04-30T09:22:54.792Z,26.31
2024-04-30T09:24:09.730Z,26.56
2024-04-30T09:25:13.975Z,26.29
2024-04-30T09:26:16.230Z,26.57
2024-04-30T09:27:18.548Z,26.59
2024-04-30T09:28:23.825Z,26.03
2024-04-30T09:29:38.234Z,26.66
2024-04-30T09:30:44.171Z,26.58
2024-04-30T09:31:48.088Z,26.70
2024-04-30T09:32:51.820Z,26.59
2024-04-30T09:33:56.094Z,26.47
2024-04-30T09:34:58.486Z,26.32
2024-04-30T09:36:10.372Z,26.26
2024-04-30T09:37:24.693Z,26.05
2024-04-30T09:38:28.870Z,26.34
2024-04-30T09:39:34.621Z,26.51
2024-04-30T09:40:37.428Z,26.42
2024-04-30T09:41:40.109Z,26.37
2024-04-30T09:42:42.910Z,26.40
2024-04-30T09:43:48.246Z,26.37
2024-04-30T09:44:55.169Z,26.31
2024-04-30T09:45:59.005Z,26.14
2024-04-30T09:47:03.314Z,26.40
2024-04-30T09:48:09.824Z,26.27
2024-04-30T09:49:15.315Z,26.32
2024-04-30T09:50:18.850Z,26.20
2024-04-30T09:51:26.522Z,26.16
2024-04-30T09:52:30.274Z,26.21
2024-04-30T09:53:33.762Z,26.34
2024-04-30T09:54:38.353Z,26.30
2024-04-30T09:55:44.017Z,26.14
2024-04-30T09:56:51.675Z,25.74
2024-04-30T09:57:57.379Z,26.08
2024-04-30T09:58:59.889Z,26.00
2024-04-30T10:00:03.040Z,26.00
2024-04-30T10:01:19.421Z,26.20
2024-04-30T10:02:23.289Z,25.88
2024-04-30T10:03:27.988Z,25.56
2024-04-30T10:04:31.314Z,25.48
2024-04-30T10:05:38.729Z,25.56
2024-04-30T10:06:45.048Z,25.79
2024-04-30T10:08:06.651Z,25.84
2024-04-30T10:09:08.995Z,25.72
2024-04-30T10:10:11.280Z,25.49
2024-04-30T10:11:14.315Z,25.63
2024-04-30T10:12:29.524Z,25.71
2024-04-30T10:13:56.656Z,25.50
2024-04-30T10:15:12.848Z,25.41
2024-04-30T10:16:18.687Z,25.35
2024-04-30T10:17:21.324Z,25.45
2024-04-30T10:18:26.032Z,25.39
2024-04-30T10:19:29.520Z,25.43
2024-04-30T10:20:32.802Z,25.14
2024-04-30T10:21:37.696Z,25.37
2024-04-30T10:22:44.244Z,25.57
2024-04-30T10:23:47.923Z,25.51
2024-04-30T10:24:50.178Z,25.61
2024-04-30T10:26:04.666Z,25.23
2024-04-30T10:27:25.491Z,25.21
2024-04-30T10:28:28.027Z,25.24
2024-04-30T10:29:31.255Z,25.34
2024-04-30T10:30:33.944Z,25.19
2024-04-30T10:31:37.953Z,25.22
2024-04-30T10:32:46.872Z,25.34
2024-04-30T10:33:51.567Z,25.01
2024-04-30T10:34:55.402Z,24.76
2024-04-30T10:36:00.220Z,24.80
2024-04-30T10:37:05.100Z,25.03
2024-04-30T10:38:08.032Z,25.20
2024-04-30T10:39:12.218Z,25.08
2024-04-30T10:40:17.525Z,25.11
2024-04-30T10:41:21.019Z,25.23
2024-04-30T10:42:35.363Z,25.04
2024-04-30T10:43:38.532Z,25.06
2024-04-30T10:44:42.648Z,25.17
2024-04-30T10:45:44.848Z,25.08
2024-04-30T10:46:47.236Z,25.07
2024-04-30T10:47:51.021Z,24.99
2024-04-30T10:48:55.113Z,24.76
2024-04-30T10:50:16.581Z,24.94
2024-04-30T10:51:24.417Z,24.82
2024-04-30T10:52:27.328Z,24.92
2024-04-30T10:53:33.694Z,24.65
2024-04-30T10:54:36.481Z,24.60
2024-04-30T10:55:43.196Z,24.65
2024-04-30T10:56:46.520Z,24.49
2024-04-30T10:57:49.945Z,24.50
2024-04-30T10:58:59.497Z,24.47
2024-04-30T11:00:02.925Z,24.53
2024-04-30T11:01:05.670Z,24.54
2024-04-30T11:02:09.284Z,24.45
2024-04-30T11:03:15.482Z,24.59
2024-04-30T11:04:17.980Z,24.48
2024-04-30T11:05:20.666Z,24.42
2024-04-30T11:06:23.189Z,24.30
2024-04-30T11:07:27.999Z,24.28
2024-04-30T11:08:30.229Z,24.46
2024-04-30T11:09:40.787Z,24.11
2024-04-30T11:10:47.033Z,24.17
2024-04-30T11:11:51.289Z,24.25
2024-04-30T11:13:04.601Z,24.29
2024-04-30T11:14:06.956Z,24.27
2024-04-30T11:15:11.259Z,23.99
2024-04-30T11:16:16.222Z,24.04
2024-04-30T11:17:27.640Z,23.89
2024-04-30T11:18:30.967Z,23.90
2024-04-30T11:19:33.204Z,23.75
2024-04-30T11:20:36.938Z,23.91
2024-04-30T11:21:40.351Z,24.01
2024-04-30T11:22:43.984Z,24.07
2024-04-30T11:23:46.329Z,24.13
2024-04-30T11:24:48.587Z,24.13
2024-04-30T11:25:50.860Z,24.16
2024-04-30T11:26:53.148Z,23.99
2024-04-30T11:27:55.583Z,24.07
2024-04-30T11:29:09.573Z,24.10
2024-04-30T11:30:22.606Z,24.10
2024-04-30T11:31:29.752Z,24.04
2024-04-30T11:32:33.676Z,23.90
2024-04-30T11:33:36.685Z,23.89
2024-04-30T11:34:40.392Z,23.90
2024-04-30T11:35:44.246Z,23.90
2024-04-30T11:36:49.730Z,24.01
2024-04-30T11:37:51.901Z,23.84
2024-04-30T11:38:58.326Z,23.88
2024-04-30T11:40:01.014Z,23.78
2024-04-30T11:41:08.537Z,23.68
2024-04-30T11:42:18.399Z,23.58
2024-04-30T11:43:26.935Z,23.76
2024-04-30T11:44:30.055Z,23.78
2024-04-30T11:45:36.878Z,23.89
2024-04-30T11:46:39.247Z,23.86
2024-04-30T11:47:41.580Z,23.81
2024-04-30T11:48:45.160Z,23.76
2024-04-30T11:49:48.006Z,23.81
2024-04-30T11:50:55.620Z,23.81
2024-04-30T11:52:02.681Z,23.84
2024-04-30T11:53:09.396Z,23.81
2024-04-30T11:54:14.612Z,23.78
2024-04-30T11:55:20.752Z,23.79
2024-04-30T11:56:27.309Z,23.84
2024-04-30T11:57:35.949Z,23.79
2024-04-30T11:58:39.182Z,23.77
2024-04-30T11:59:42.663Z,23.84
2024-04-30T12:00:46.718Z,23.76
2024-04-30T12:01:50.150Z,23.87
2024-04-30T12:02:54.004Z,23.97
2024-04-30T12:03:56.484Z,23.91
2024-04-30T12:05:00.581Z,23.87
2024-04-30T12:06:08.739Z,23.89
2024-04-30T12:07:11.376Z,23.82
2024-04-30T12:08:14.627Z,23.82
2024-04-30T12:09:22.446Z,23.80
2024-04-30T12:10:26.567Z,23.87
2024-04-30T12:11:28.964Z,23.90
2024-04-30T12:12:31.237Z,23.74
2024-04-30T12:13:36.180Z,23.84
2024-04-30T12:14:40.603Z,23.68
2024-04-30T12:15:43.156Z,23.77
2024-04-30T12:16:47.996Z,23.76
2024-04-30T12:17:54.350Z,23.80
2024-04-30T12:19:00.712Z,23.83
2024-04-30T12:20:07.807Z,23.91
2024-04-30T12:21:11.358Z,23.88
2024-04-30T12:22:17.781Z,23.92
2024-04-30T12:23:22.104Z,23.89
2024-04-30T12:24:26.447Z,23.84
2024-04-30T12:25:31.727Z,23.71
2024-04-30T12:26:37.714Z,23.82
2024-04-30T12:27:41.077Z,23.81
2024-04-30T12:28:43.930Z,23.88
2024-04-30T12:29:48.728Z,23.87
2024-04-30T12:30:52.506Z,23.84
2024-04-30T12:31:55.033Z,23.83
2024-04-30T12:32:58.921Z,23.68
2024-04-30T12:34:02.989Z,23.73
2024-04-30T12:35:07.660Z,23.78
2024-04-30T12:36:10.973Z,23.82
2024-04-30T12:37:15.268Z,23.86
2024-04-30T12:38:23.801Z,23.78
2024-04-30T12:39:26.098Z,23.86
2024-04-30T12:40:28.944Z,23.80
2024-04-30T12:41:39.272Z,23.82
2024-04-30T12:42:46.873Z,23.82
2024-04-30T12:43:50.375Z,23.84
2024-04-30T12:44:53.294Z,23.67
2024-04-30T12:45:55.728Z,23.69
2024-04-30T12:46:59.159Z,23.74
2024-04-30T12:48:02.110Z,23.76
2024-04-30T12:49:05.903Z,23.84
2024-04-30T12:50:08.914Z,23.90
2024-04-30T12:51:15.574Z,23.84
2024-04-30T12:52:19.156Z,23.84
2024-04-30T12:53:22.908Z,23.84
2024-04-30T12:54:45.626Z,23.76
2024-04-30T12:55:50.415Z,23.76
2024-04-30T12:56:55.503Z,23.69
2024-04-30T12:58:00.554Z,23.72
2024-04-30T12:59:06.496Z,23.71
2024-04-30T13:00:09.099Z,23.69
2024-04-30T13:01:16.956Z,23.70
2024-04-30T13:02:21.551Z,23.80
2024-04-30T13:03:24.894Z,23.68
2024-04-30T13:04:27.360Z,23.61
2024-04-30T13:05:31.097Z,23.73
2024-04-30T13:06:39.205Z,23.76
2024-04-30T13:07:41.575Z,23.70
2024-04-30T13:08:43.922Z,23.78
2024-04-30T13:09:47.257Z,23.80
2024-04-30T13:10:50.065Z,23.86
2024-04-30T13:11:55.154Z,23.80
2024-04-30T13:12:57.531Z,23.85
2024-04-30T13:13:59.865Z,23.80
2024-04-30T13:15:03.391Z,23.86
2024-04-30T13:16:08.025Z,23.89
2024-04-30T13:17:13.366Z,23.89
2024-04-30T13:18:15.656Z,23.92
2024-04-30T13:19:18.166Z,23.96
2024-04-30T13:20:20.685Z,23.95
2024-04-30T13:21:23.100Z,23.91
2024-04-30T13:22:26.329Z,23.87
2024-04-30T13:23:50.429Z,23.86
2024-04-30T13:24:52.864Z,23.89
2024-04-30T13:25:55.165Z,23.94
2024-04-30T13:26:57.331Z,23.99
2024-04-30T13:28:02.108Z,24.06
2024-04-30T13:29:06.038Z,23.99
2024-04-30T13:30:13.356Z,24.05
2024-04-30T13:31:17.411Z,24.09
2024-04-30T13:32:21.079Z,24.05
2024-04-30T13:33:24.530Z,24.08
2024-04-30T13:34:28.605Z,24.15
2024-04-30T13:35:32.049Z,24.21
2024-04-30T13:36:34.567Z,24.15
2024-04-30T13:37:39.753Z,24.13
2024-04-30T13:38:42.179Z,24.19
2024-04-30T13:39:45.854Z,24.11
2024-04-30T13:40:49.221Z,24.11
2024-04-30T13:41:53.112Z,24.13
2024-04-30T13:42:55.499Z,24.14
2024-04-30T13:44:00.640Z,23.95
2024-04-30T13:45:02.906Z,23.95
2024-04-30T13:46:05.894Z,23.77
2024-04-30T13:47:09.095Z,23.84
2024-04-30T13:48:11.625Z,23.91
2024-04-30T13:49:14.143Z,23.97
2024-04-30T13:50:18.192Z,23.89
2024-04-30T13:51:26.165Z,23.93
2024-04-30T13:52:28.535Z,23.91
2024-04-30T13:53:30.718Z,23.92
2024-04-30T13:54:34.533Z,23.86
2024-04-30T13:55:36.907Z,23.78
2024-04-30T13:56:40.115Z,23.84
2024-04-30T13:57:44.657Z,23.89
2024-04-30T13:58:47.458Z,23.82